Aérodrome :
LOGIN :

S'inscrire | Disclaimer

   EN    FR    IT 

 










Légende :    VFR   VFR Marginal   IFR   IFR Intensif   IFR Très Intensif
Visi : 
Plafond : 
>= 8 km
>= 3000ft
5 à 8 km
1000 à 3000 ft
1500m à 5 km
500 à 1000 ft
800 à 1500m
200 à 500 ft
< 800m
< 200 ft
Symboles :   Orages  Brouillard  Fortes neiges  Fortes précipitations  Vent > 20 kt
SIGMETs :   Divers  Orages  Givrage  Turbulence  Onde Orograph.  Cendres Volcan.






- Altitude de l'aérodrome : 768 ft
- Code IATA : MXP


LIMC - Milano Malpensa

DERNIER METAR :
  • 141250Z 35008KT 9999 -RA SCT025 BKN050 07/04 Q1008 NOSIG

METARs EXPIRÉS :
  • 141220Z 35008KT 9999 BKN050 07/03 Q1008 NOSIG
  • 141150Z 36006KT 9999 BKN050 07/02 Q1008 NOSIG
  • 141120Z 02006KT 9999 FEW030 BKN070 07/02 Q1009 NOSIG
  • 141050Z 03004KT 9999 FEW030 BKN070 07/02 Q1009 NOSIG

TAF TAF LIMC
Valide du 14 à 12h jusqu'au 15 à 18h UTC


141100Z 1412/1518 VRB05KT 9999 SCT035 BKN070
BECMG 1418/1420 13012KT 4000 RA BKN012 BKN040
TEMPO 1422/1503 SHRA
BECMG 1506/1509 VRB05KT 7000 NSW SCT025 BKN060
PROB40
TEMPO 1510/1514 SHRA



MET'MAP, la Météo Aéronautique d'un coup d'oeil ! - Copyright ORBIFLY Décembre 2007 - Disclaimer

ORBIFLY MET'MAP TEAM :

Programmation & Développement : Alexandra Zaïnal
Conception & Développement : Baudouin d'Aumeries
Co-Programmation & Développement : Marc-Olivier Méhu
Soutien technique & logistique : Manuel Goepfert

Contact : metmap@orbifly.com




SOURCES & CREDITS :

   NOAA